Terminal Aerodrome Forecast
Issued by NWS

Home | Current Version | Previous Version | Text Only | Print | Product List | Glossary On
Versions: 1 2 3 4 5 6 7 8 9 10 11 12 13 14 15
000
FTAK31 PAFA 252331
TAFAGA
TAF
PAGA 252331Z 2600/2624 24010KT P6SM -RA SCT015 SCT025 OVC035
      TEMPO 2602/2604 BKN025 OVC035
     FM260600 25007KT 6SM -RA BR BKN012 OVC025=

USA.gov is the U.S. government's official web portal to all federal, state and local government web resources and services.